sensor_id;sensor_type;location;lat;lon;timestamp;P1;durP1;ratioP1;P2;durP2;ratioP2
23046;SDS011;11691;51.462;6.902;2023-02-28T00:00:22;6.10;;;4.73;;
23046;SDS011;11691;51.462;6.902;2023-02-28T00:02:48;7.50;;;5.13;;
23046;SDS011;11691;51.462;6.902;2023-02-28T00:05:16;8.10;;;4.33;;
23046;SDS011;11691;51.462;6.902;2023-02-28T00:07:43;6.20;;;4.47;;
23046;SDS011;11691;51.462;6.902;2023-02-28T00:10:10;7.20;;;4.40;;
23046;SDS011;11691;51.462;6.902;2023-02-28T00:12:37;8.23;;;4.43;;
23046;SDS011;11691;51.462;6.902;2023-02-28T00:15:07;7.47;;;4.53;;
23046;SDS011;11691;51.462;6.902;2023-02-28T00:17:34;9.17;;;4.27;;
23046;SDS011;11691;51.462;6.902;2023-02-28T00:20:00;8.90;;;4.57;;
23046;SDS011;11691;51.462;6.902;2023-02-28T00:22:37;7.80;;;4.30;;
23046;SDS011;11691;51.462;6.902;2023-02-28T00:25:03;6.00;;;4.70;;
23046;SDS011;11691;51.462;6.902;2023-02-28T00:27:31;8.13;;;4.53;;
23046;SDS011;11691;51.462;6.902;2023-02-28T00:29:57;9.50;;;4.77;;
23046;SDS011;11691;51.462;6.902;2023-02-28T00:32:23;6.33;;;4.30;;
23046;SDS011;11691;51.462;6.902;2023-02-28T00:34:49;6.43;;;4.40;;
23046;SDS011;11691;51.462;6.902;2023-02-28T00:37:15;6.90;;;4.33;;
23046;SDS011;11691;51.462;6.902;2023-02-28T00:39:41;8.67;;;4.80;;
23046;SDS011;11691;51.462;6.902;2023-02-28T00:42:08;9.93;;;4.60;;
23046;SDS011;11691;51.462;6.902;2023-02-28T00:44:34;7.67;;;4.27;;
23046;SDS011;11691;51.462;6.902;2023-02-28T00:47:00;9.10;;;4.27;;
23046;SDS011;11691;51.462;6.902;2023-02-28T00:49:26;10.03;;;4.53;;
23046;SDS011;11691;51.462;6.902;2023-02-28T00:51:53;7.33;;;4.60;;
23046;SDS011;11691;51.462;6.902;2023-02-28T00:54:20;5.33;;;4.07;;
23046;SDS011;11691;51.462;6.902;2023-02-28T00:56:46;8.47;;;3.77;;
23046;SDS011;11691;51.462;6.902;2023-02-28T00:59:12;8.30;;;4.60;;
23046;SDS011;11691;51.462;6.902;2023-02-28T01:01:39;6.23;;;3.90;;
23046;SDS011;11691;51.462;6.902;2023-02-28T01:04:05;5.50;;;3.70;;
23046;SDS011;11691;51.462;6.902;2023-02-28T01:06:31;6.97;;;4.07;;
23046;SDS011;11691;51.462;6.902;2023-02-28T01:08:58;7.13;;;3.87;;
23046;SDS011;11691;51.462;6.902;2023-02-28T01:11:24;8.13;;;3.40;;
23046;SDS011;11691;51.462;6.902;2023-02-28T01:13:50;5.17;;;3.53;;
23046;SDS011;11691;51.462;6.902;2023-02-28T01:16:16;8.67;;;3.80;;
23046;SDS011;11691;51.462;6.902;2023-02-28T01:18:42;8.33;;;4.03;;
23046;SDS011;11691;51.462;6.902;2023-02-28T01:21:11;6.60;;;4.00;;
23046;SDS011;11691;51.462;6.902;2023-02-28T01:23:37;7.13;;;3.83;;
23046;SDS011;11691;51.462;6.902;2023-02-28T01:26:12;5.30;;;3.67;;
23046;SDS011;11691;51.462;6.902;2023-02-28T01:28:40;5.50;;;3.33;;
23046;SDS011;11691;51.462;6.902;2023-02-28T01:31:06;6.20;;;3.60;;
23046;SDS011;11691;51.462;6.902;2023-02-28T01:33:32;6.40;;;3.80;;
23046;SDS011;11691;51.462;6.902;2023-02-28T01:35:59;7.23;;;3.53;;
23046;SDS011;11691;51.462;6.902;2023-02-28T01:38:25;8.77;;;3.50;;
23046;SDS011;11691;51.462;6.902;2023-02-28T01:40:51;5.57;;;3.10;;
23046;SDS011;11691;51.462;6.902;2023-02-28T01:43:20;6.37;;;3.50;;
23046;SDS011;11691;51.462;6.902;2023-02-28T01:45:51;6.17;;;3.57;;
23046;SDS011;11691;51.462;6.902;2023-02-28T01:48:17;7.80;;;3.00;;
23046;SDS011;11691;51.462;6.902;2023-02-28T01:50:45;5.97;;;3.17;;
23046;SDS011;11691;51.462;6.902;2023-02-28T01:53:14;5.33;;;3.07;;
23046;SDS011;11691;51.462;6.902;2023-02-28T01:55:42;7.57;;;3.17;;
23046;SDS011;11691;51.462;6.902;2023-02-28T01:58:11;5.20;;;3.43;;
23046;SDS011;11691;51.462;6.902;2023-02-28T02:00:37;6.47;;;3.20;;
23046;SDS011;11691;51.462;6.902;2023-02-28T02:03:09;6.07;;;2.63;;
23046;SDS011;11691;51.462;6.902;2023-02-28T02:05:37;5.83;;;2.97;;
23046;SDS011;11691;51.462;6.902;2023-02-28T02:08:05;5.90;;;2.60;;
23046;SDS011;11691;51.462;6.902;2023-02-28T02:10:33;6.20;;;2.90;;
23046;SDS011;11691;51.462;6.902;2023-02-28T02:16:01;5.93;;;3.07;;
23046;SDS011;11691;51.462;6.902;2023-02-28T02:30:09;4.30;;;2.60;;
23046;SDS011;11691;51.462;6.902;2023-02-28T02:32:47;5.03;;;2.53;;
23046;SDS011;11691;51.462;6.902;2023-02-28T02:40:57;6.37;;;2.90;;
23046;SDS011;11691;51.462;6.902;2023-02-28T02:43:22;5.47;;;3.10;;
23046;SDS011;11691;51.462;6.902;2023-02-28T02:46:09;4.87;;;3.03;;
23046;SDS011;11691;51.462;6.902;2023-02-28T02:48:40;5.03;;;2.80;;
23046;SDS011;11691;51.462;6.902;2023-02-28T02:51:09;5.53;;;3.00;;
23046;SDS011;11691;51.462;6.902;2023-02-28T02:53:40;3.97;;;2.33;;
23046;SDS011;11691;51.462;6.902;2023-02-28T02:56:11;6.17;;;2.93;;
23046;SDS011;11691;51.462;6.902;2023-02-28T02:58:39;5.00;;;2.47;;
23046;SDS011;11691;51.462;6.902;2023-02-28T03:01:07;6.70;;;3.03;;
23046;SDS011;11691;51.462;6.902;2023-02-28T03:03:36;4.33;;;2.90;;
23046;SDS011;11691;51.462;6.902;2023-02-28T03:06:02;5.10;;;2.30;;
23046;SDS011;11691;51.462;6.902;2023-02-28T03:08:29;6.33;;;2.90;;
23046;SDS011;11691;51.462;6.902;2023-02-28T03:11:00;2.80;;;2.20;;
23046;SDS011;11691;51.462;6.902;2023-02-28T03:16:29;4.73;;;2.50;;
23046;SDS011;11691;51.462;6.902;2023-02-28T03:24:54;3.77;;;2.70;;
23046;SDS011;11691;51.462;6.902;2023-02-28T03:27:45;3.27;;;2.30;;
23046;SDS011;11691;51.462;6.902;2023-02-28T03:30:33;5.57;;;2.77;;
23046;SDS011;11691;51.462;6.902;2023-02-28T03:33:14;4.87;;;2.50;;
23046;SDS011;11691;51.462;6.902;2023-02-28T03:35:51;8.30;;;2.97;;
23046;SDS011;11691;51.462;6.902;2023-02-28T03:38:20;4.23;;;2.70;;
23046;SDS011;11691;51.462;6.902;2023-02-28T03:40:55;6.70;;;2.70;;
23046;SDS011;11691;51.462;6.902;2023-02-28T03:43:28;4.73;;;2.50;;
23046;SDS011;11691;51.462;6.902;2023-02-28T03:45:57;5.13;;;2.50;;
23046;SDS011;11691;51.462;6.902;2023-02-28T03:49:13;5.57;;;2.43;;
23046;SDS011;11691;51.462;6.902;2023-02-28T03:51:39;5.60;;;2.70;;
23046;SDS011;11691;51.462;6.902;2023-02-28T03:54:09;4.20;;;2.67;;
23046;SDS011;11691;51.462;6.902;2023-02-28T03:56:38;5.10;;;2.30;;
23046;SDS011;11691;51.462;6.902;2023-02-28T03:59:05;3.70;;;2.20;;
23046;SDS011;11691;51.462;6.902;2023-02-28T04:04:09;5.80;;;2.80;;
23046;SDS011;11691;51.462;6.902;2023-02-28T04:06:36;4.67;;;2.40;;
23046;SDS011;11691;51.462;6.902;2023-02-28T04:09:03;5.07;;;2.50;;
23046;SDS011;11691;51.462;6.902;2023-02-28T04:11:33;5.53;;;2.27;;
23046;SDS011;11691;51.462;6.902;2023-02-28T04:14:03;4.97;;;2.53;;
23046;SDS011;11691;51.462;6.902;2023-02-28T04:16:30;6.77;;;2.70;;
23046;SDS011;11691;51.462;6.902;2023-02-28T04:18:56;3.40;;;2.47;;
23046;SDS011;11691;51.462;6.902;2023-02-28T04:21:28;5.27;;;2.47;;
23046;SDS011;11691;51.462;6.902;2023-02-28T04:23:55;4.63;;;2.47;;
23046;SDS011;11691;51.462;6.902;2023-02-28T04:26:25;3.93;;;2.83;;
23046;SDS011;11691;51.462;6.902;2023-02-28T04:28:51;7.63;;;3.73;;
23046;SDS011;11691;51.462;6.902;2023-02-28T04:31:17;8.00;;;2.80;;
23046;SDS011;11691;51.462;6.902;2023-02-28T04:33:43;5.57;;;2.70;;
23046;SDS011;11691;51.462;6.902;2023-02-28T04:36:09;8.27;;;2.93;;
23046;SDS011;11691;51.462;6.902;2023-02-28T04:38:36;6.33;;;3.00;;
23046;SDS011;11691;51.462;6.902;2023-02-28T04:41:03;5.00;;;2.70;;
23046;SDS011;11691;51.462;6.902;2023-02-28T04:43:29;4.73;;;2.63;;
23046;SDS011;11691;51.462;6.902;2023-02-28T04:45:56;4.60;;;2.67;;
23046;SDS011;11691;51.462;6.902;2023-02-28T04:48:27;4.53;;;3.13;;
23046;SDS011;11691;51.462;6.902;2023-02-28T04:50:53;4.97;;;2.77;;
23046;SDS011;11691;51.462;6.902;2023-02-28T04:53:19;5.53;;;2.33;;
23046;SDS011;11691;51.462;6.902;2023-02-28T04:55:45;5.20;;;2.40;;
23046;SDS011;11691;51.462;6.902;2023-02-28T04:58:12;5.50;;;2.43;;
23046;SDS011;11691;51.462;6.902;2023-02-28T05:00:38;5.40;;;2.70;;
23046;SDS011;11691;51.462;6.902;2023-02-28T05:03:04;4.27;;;1.93;;
23046;SDS011;11691;51.462;6.902;2023-02-28T05:05:30;3.47;;;2.03;;
23046;SDS011;11691;51.462;6.902;2023-02-28T05:07:56;5.37;;;2.20;;
23046;SDS011;11691;51.462;6.902;2023-02-28T05:10:22;5.70;;;2.43;;
23046;SDS011;11691;51.462;6.902;2023-02-28T05:12:48;3.83;;;2.40;;
23046;SDS011;11691;51.462;6.902;2023-02-28T05:15:15;5.43;;;2.43;;
23046;SDS011;11691;51.462;6.902;2023-02-28T05:17:41;3.43;;;2.17;;
23046;SDS011;11691;51.462;6.902;2023-02-28T05:20:08;5.73;;;2.40;;
23046;SDS011;11691;51.462;6.902;2023-02-28T05:22:41;3.93;;;2.53;;
23046;SDS011;11691;51.462;6.902;2023-02-28T05:25:09;4.50;;;2.47;;
23046;SDS011;11691;51.462;6.902;2023-02-28T05:27:37;5.20;;;2.53;;
23046;SDS011;11691;51.462;6.902;2023-02-28T05:30:04;4.93;;;2.60;;
23046;SDS011;11691;51.462;6.902;2023-02-28T05:32:31;5.73;;;2.67;;
23046;SDS011;11691;51.462;6.902;2023-02-28T05:34:57;4.47;;;2.50;;
23046;SDS011;11691;51.462;6.902;2023-02-28T05:37:23;7.07;;;2.70;;
23046;SDS011;11691;51.462;6.902;2023-02-28T05:39:49;2.97;;;2.10;;
23046;SDS011;11691;51.462;6.902;2023-02-28T05:42:15;5.83;;;2.63;;
23046;SDS011;11691;51.462;6.902;2023-02-28T05:44:40;4.33;;;2.77;;
23046;SDS011;11691;51.462;6.902;2023-02-28T05:47:07;3.40;;;2.40;;
23046;SDS011;11691;51.462;6.902;2023-02-28T05:49:33;5.03;;;2.73;;
23046;SDS011;11691;51.462;6.902;2023-02-28T05:51:59;4.73;;;2.67;;
23046;SDS011;11691;51.462;6.902;2023-02-28T05:54:25;4.97;;;3.10;;
23046;SDS011;11691;51.462;6.902;2023-02-28T05:56:51;4.50;;;2.63;;
23046;SDS011;11691;51.462;6.902;2023-02-28T05:59:17;4.03;;;2.30;;
23046;SDS011;11691;51.462;6.902;2023-02-28T06:01:44;6.03;;;2.67;;
23046;SDS011;11691;51.462;6.902;2023-02-28T06:04:12;6.43;;;2.47;;
23046;SDS011;11691;51.462;6.902;2023-02-28T06:06:42;4.53;;;2.37;;
23046;SDS011;11691;51.462;6.902;2023-02-28T06:09:08;3.60;;;2.00;;
23046;SDS011;11691;51.462;6.902;2023-02-28T06:11:34;4.97;;;2.40;;
23046;SDS011;11691;51.462;6.902;2023-02-28T06:14:00;6.63;;;2.93;;
23046;SDS011;11691;51.462;6.902;2023-02-28T06:16:27;6.83;;;3.33;;
23046;SDS011;11691;51.462;6.902;2023-02-28T06:18:54;5.83;;;3.23;;
23046;SDS011;11691;51.462;6.902;2023-02-28T06:21:21;6.50;;;3.10;;
23046;SDS011;11691;51.462;6.902;2023-02-28T06:23:47;5.67;;;2.70;;
23046;SDS011;11691;51.462;6.902;2023-02-28T06:26:13;4.53;;;2.50;;
23046;SDS011;11691;51.462;6.902;2023-02-28T06:28:39;5.70;;;2.33;;
23046;SDS011;11691;51.462;6.902;2023-02-28T06:31:06;4.50;;;2.20;;
23046;SDS011;11691;51.462;6.902;2023-02-28T06:33:37;5.70;;;3.00;;
23046;SDS011;11691;51.462;6.902;2023-02-28T06:36:04;5.13;;;2.47;;
23046;SDS011;11691;51.462;6.902;2023-02-28T06:38:30;3.07;;;2.20;;
23046;SDS011;11691;51.462;6.902;2023-02-28T06:40:57;4.67;;;2.70;;
23046;SDS011;11691;51.462;6.902;2023-02-28T06:43:23;6.10;;;3.03;;
23046;SDS011;11691;51.462;6.902;2023-02-28T06:45:50;5.60;;;2.60;;
23046;SDS011;11691;51.462;6.902;2023-02-28T06:48:16;4.53;;;3.00;;
23046;SDS011;11691;51.462;6.902;2023-02-28T06:50:42;5.93;;;3.20;;
23046;SDS011;11691;51.462;6.902;2023-02-28T06:53:08;5.73;;;2.70;;
23046;SDS011;11691;51.462;6.902;2023-02-28T06:55:34;5.67;;;3.00;;
23046;SDS011;11691;51.462;6.902;2023-02-28T06:58:03;5.53;;;2.80;;
23046;SDS011;11691;51.462;6.902;2023-02-28T07:00:40;5.07;;;3.03;;
23046;SDS011;11691;51.462;6.902;2023-02-28T07:03:07;6.60;;;3.17;;
23046;SDS011;11691;51.462;6.902;2023-02-28T07:05:36;4.80;;;3.17;;
23046;SDS011;11691;51.462;6.902;2023-02-28T07:08:02;5.27;;;3.20;;
23046;SDS011;11691;51.462;6.902;2023-02-28T07:10:29;4.33;;;2.70;;
23046;SDS011;11691;51.462;6.902;2023-02-28T07:12:55;5.70;;;3.10;;
23046;SDS011;11691;51.462;6.902;2023-02-28T07:15:21;6.13;;;2.70;;
23046;SDS011;11691;51.462;6.902;2023-02-28T07:17:47;5.77;;;3.00;;
23046;SDS011;11691;51.462;6.902;2023-02-28T07:20:13;4.70;;;2.90;;
23046;SDS011;11691;51.462;6.902;2023-02-28T07:22:39;6.40;;;2.93;;
23046;SDS011;11691;51.462;6.902;2023-02-28T07:25:06;5.20;;;3.00;;
23046;SDS011;11691;51.462;6.902;2023-02-28T07:27:33;5.30;;;2.77;;
23046;SDS011;11691;51.462;6.902;2023-02-28T07:29:59;6.07;;;3.00;;
23046;SDS011;11691;51.462;6.902;2023-02-28T07:32:26;5.90;;;2.73;;
23046;SDS011;11691;51.462;6.902;2023-02-28T07:34:52;6.13;;;3.13;;
23046;SDS011;11691;51.462;6.902;2023-02-28T07:37:19;5.57;;;2.77;;
23046;SDS011;11691;51.462;6.902;2023-02-28T07:39:45;4.63;;;2.77;;
23046;SDS011;11691;51.462;6.902;2023-02-28T07:42:10;6.97;;;3.20;;
23046;SDS011;11691;51.462;6.902;2023-02-28T07:44:40;4.47;;;2.83;;
23046;SDS011;11691;51.462;6.902;2023-02-28T07:47:09;9.20;;;3.03;;
23046;SDS011;11691;51.462;6.902;2023-02-28T07:49:36;5.30;;;2.73;;
23046;SDS011;11691;51.462;6.902;2023-02-28T07:52:03;3.93;;;2.40;;
23046;SDS011;11691;51.462;6.902;2023-02-28T07:54:29;3.53;;;2.50;;
23046;SDS011;11691;51.462;6.902;2023-02-28T07:56:55;3.27;;;2.37;;
23046;SDS011;11691;51.462;6.902;2023-02-28T07:59:21;4.40;;;2.40;;
23046;SDS011;11691;51.462;6.902;2023-02-28T08:01:47;7.00;;;2.90;;
23046;SDS011;11691;51.462;6.902;2023-02-28T08:04:15;4.77;;;2.50;;
23046;SDS011;11691;51.462;6.902;2023-02-28T08:06:41;5.83;;;2.53;;
23046;SDS011;11691;51.462;6.902;2023-02-28T08:09:07;6.07;;;2.07;;
23046;SDS011;11691;51.462;6.902;2023-02-28T08:11:33;8.60;;;2.70;;
23046;SDS011;11691;51.462;6.902;2023-02-28T08:13:59;4.37;;;2.37;;
23046;SDS011;11691;51.462;6.902;2023-02-28T08:16:25;5.53;;;2.63;;
23046;SDS011;11691;51.462;6.902;2023-02-28T08:18:51;4.83;;;2.70;;
23046;SDS011;11691;51.462;6.902;2023-02-28T08:21:18;3.60;;;2.40;;
23046;SDS011;11691;51.462;6.902;2023-02-28T08:23:46;3.00;;;2.33;;
23046;SDS011;11691;51.462;6.902;2023-02-28T08:26:13;4.97;;;2.30;;
23046;SDS011;11691;51.462;6.902;2023-02-28T08:28:39;3.83;;;2.93;;
23046;SDS011;11691;51.462;6.902;2023-02-28T08:31:09;6.00;;;2.90;;
23046;SDS011;11691;51.462;6.902;2023-02-28T08:33:35;12.93;;;2.63;;
23046;SDS011;11691;51.462;6.902;2023-02-28T08:36:02;4.30;;;2.30;;
23046;SDS011;11691;51.462;6.902;2023-02-28T08:38:28;3.87;;;2.33;;
23046;SDS011;11691;51.462;6.902;2023-02-28T08:41:00;2.93;;;2.17;;
23046;SDS011;11691;51.462;6.902;2023-02-28T08:43:27;2.83;;;2.07;;
23046;SDS011;11691;51.462;6.902;2023-02-28T08:45:54;3.60;;;2.17;;
23046;SDS011;11691;51.462;6.902;2023-02-28T08:48:22;3.17;;;2.23;;
23046;SDS011;11691;51.462;6.902;2023-02-28T08:50:55;4.87;;;2.40;;
23046;SDS011;11691;51.462;6.902;2023-02-28T08:53:21;4.23;;;2.27;;
23046;SDS011;11691;51.462;6.902;2023-02-28T08:55:47;3.83;;;2.00;;
23046;SDS011;11691;51.462;6.902;2023-02-28T08:58:20;3.67;;;2.07;;
23046;SDS011;11691;51.462;6.902;2023-02-28T09:00:46;4.88;;;2.05;;
23046;SDS011;11691;51.462;6.902;2023-02-28T09:03:12;2.60;;;1.80;;
23046;SDS011;11691;51.462;6.902;2023-02-28T09:05:38;5.25;;;2.63;;
23046;SDS011;11691;51.462;6.902;2023-02-28T09:08:04;2.63;;;1.95;;
23046;SDS011;11691;51.462;6.902;2023-02-28T09:10:30;4.60;;;2.20;;
23046;SDS011;11691;51.462;6.902;2023-02-28T09:12:56;5.35;;;2.38;;
23046;SDS011;11691;51.462;6.902;2023-02-28T09:15:22;2.88;;;1.90;;
23046;SDS011;11691;51.462;6.902;2023-02-28T09:17:48;4.05;;;1.92;;
23046;SDS011;11691;51.462;6.902;2023-02-28T09:20:14;3.83;;;2.00;;
23046;SDS011;11691;51.462;6.902;2023-02-28T09:22:40;5.78;;;2.00;;
23046;SDS011;11691;51.462;6.902;2023-02-28T09:25:06;2.40;;;1.90;;
23046;SDS011;11691;51.462;6.902;2023-02-28T09:27:32;3.80;;;2.08;;
23046;SDS011;11691;51.462;6.902;2023-02-28T09:29:58;2.90;;;1.70;;
23046;SDS011;11691;51.462;6.902;2023-02-28T09:32:24;2.10;;;1.52;;
23046;SDS011;11691;51.462;6.902;2023-02-28T09:34:50;3.38;;;1.92;;
23046;SDS011;11691;51.462;6.902;2023-02-28T09:37:16;2.83;;;1.83;;
23046;SDS011;11691;51.462;6.902;2023-02-28T09:39:42;2.45;;;1.88;;
23046;SDS011;11691;51.462;6.902;2023-02-28T09:42:12;7.18;;;2.30;;
23046;SDS011;11691;51.462;6.902;2023-02-28T09:44:48;3.22;;;1.42;;
23046;SDS011;11691;51.462;6.902;2023-02-28T09:47:32;3.13;;;1.60;;
23046;SDS011;11691;51.462;6.902;2023-02-28T09:50:14;2.53;;;1.70;;
23046;SDS011;11691;51.462;6.902;2023-02-28T09:52:51;3.05;;;1.35;;
23046;SDS011;11691;51.462;6.902;2023-02-28T09:57:45;2.70;;;1.40;;
23046;SDS011;11691;51.462;6.902;2023-02-28T10:00:24;3.92;;;1.30;;
23046;SDS011;11691;51.462;6.902;2023-02-28T10:05:38;5.07;;;1.60;;
23046;SDS011;11691;51.462;6.902;2023-02-28T10:08:15;3.15;;;1.30;;
23046;SDS011;11691;51.462;6.902;2023-02-28T10:10:47;5.30;;;1.52;;
23046;SDS011;11691;51.462;6.902;2023-02-28T10:13:21;4.47;;;1.48;;
23046;SDS011;11691;51.462;6.902;2023-02-28T10:15:58;2.15;;;1.27;;
23046;SDS011;11691;51.462;6.902;2023-02-28T10:18:27;3.58;;;1.70;;
23046;SDS011;11691;51.462;6.902;2023-02-28T10:21:00;3.65;;;1.40;;
23046;SDS011;11691;51.462;6.902;2023-02-28T10:23:31;2.40;;;1.38;;
23046;SDS011;11691;51.462;6.902;2023-02-28T10:26:00;3.33;;;1.33;;
23046;SDS011;11691;51.462;6.902;2023-02-28T10:28:28;4.28;;;1.40;;
23046;SDS011;11691;51.462;6.902;2023-02-28T10:30:55;1.75;;;1.40;;
23046;SDS011;11691;51.462;6.902;2023-02-28T10:36:00;4.43;;;1.77;;
23046;SDS011;11691;51.462;6.902;2023-02-28T10:38:37;2.35;;;1.40;;
23046;SDS011;11691;51.462;6.902;2023-02-28T10:43:29;5.10;;;1.90;;
23046;SDS011;11691;51.462;6.902;2023-02-28T10:45:57;3.78;;;1.65;;
23046;SDS011;11691;51.462;6.902;2023-02-28T10:48:26;3.67;;;1.50;;
23046;SDS011;11691;51.462;6.902;2023-02-28T10:50:53;4.13;;;1.55;;
23046;SDS011;11691;51.462;6.902;2023-02-28T10:53:25;3.42;;;1.40;;
23046;SDS011;11691;51.462;6.902;2023-02-28T10:56:01;2.40;;;1.40;;
23046;SDS011;11691;51.462;6.902;2023-02-28T10:58:28;2.63;;;1.33;;
23046;SDS011;11691;51.462;6.902;2023-02-28T11:00:54;1.87;;;1.10;;
23046;SDS011;11691;51.462;6.902;2023-02-28T11:03:31;3.70;;;1.30;;
23046;SDS011;11691;51.462;6.902;2023-02-28T11:06:03;2.07;;;1.20;;
23046;SDS011;11691;51.462;6.902;2023-02-28T11:08:32;2.90;;;1.50;;
23046;SDS011;11691;51.462;6.902;2023-02-28T11:11:00;2.70;;;1.33;;
23046;SDS011;11691;51.462;6.902;2023-02-28T11:13:34;5.07;;;1.43;;
23046;SDS011;11691;51.462;6.902;2023-02-28T11:16:02;3.57;;;1.10;;
23046;SDS011;11691;51.462;6.902;2023-02-28T11:18:34;1.50;;;1.00;;
23046;SDS011;11691;51.462;6.902;2023-02-28T11:21:02;1.97;;;1.33;;
23046;SDS011;11691;51.462;6.902;2023-02-28T11:23:29;1.20;;;0.87;;
23046;SDS011;11691;51.462;6.902;2023-02-28T11:25:58;2.00;;;1.00;;
23046;SDS011;11691;51.462;6.902;2023-02-28T11:28:29;2.20;;;1.20;;
23046;SDS011;11691;51.462;6.902;2023-02-28T11:35:52;2.00;;;1.20;;
23046;SDS011;11691;51.462;6.902;2023-02-28T11:38:19;2.47;;;1.10;;
23046;SDS011;11691;51.462;6.902;2023-02-28T11:40:52;4.83;;;1.67;;
23046;SDS011;11691;51.462;6.902;2023-02-28T11:46:18;1.67;;;1.30;;
23046;SDS011;11691;51.462;6.902;2023-02-28T11:51:31;2.47;;;1.57;;
23046;SDS011;11691;51.462;6.902;2023-02-28T12:00:11;2.87;;;1.77;;
23046;SDS011;11691;51.462;6.902;2023-02-28T12:13:32;2.40;;;1.40;;
23046;SDS011;11691;51.462;6.902;2023-02-28T12:16:15;3.33;;;1.57;;
23046;SDS011;11691;51.462;6.902;2023-02-28T12:21:51;2.23;;;1.23;;
23046;SDS011;11691;51.462;6.902;2023-02-28T12:26:42;3.53;;;1.50;;
23046;SDS011;11691;51.462;6.902;2023-02-28T12:31:45;3.50;;;1.40;;
23046;SDS011;11691;51.462;6.902;2023-02-28T12:34:14;4.27;;;1.80;;
23046;SDS011;11691;51.462;6.902;2023-02-28T12:36:41;3.83;;;1.77;;
23046;SDS011;11691;51.462;6.902;2023-02-28T12:39:20;3.37;;;1.80;;
23046;SDS011;11691;51.462;6.902;2023-02-28T12:41:51;4.07;;;1.60;;
23046;SDS011;11691;51.462;6.902;2023-02-28T12:47:09;1.83;;;1.50;;
23046;SDS011;11691;51.462;6.902;2023-02-28T12:49:38;8.20;;;1.80;;
23046;SDS011;11691;51.462;6.902;2023-02-28T12:52:05;2.50;;;1.47;;
23046;SDS011;11691;51.462;6.902;2023-02-28T12:54:38;2.30;;;1.63;;
23046;SDS011;11691;51.462;6.902;2023-02-28T12:59:51;2.30;;;1.63;;
23046;SDS011;11691;51.462;6.902;2023-02-28T13:07:36;4.13;;;1.70;;
23046;SDS011;11691;51.462;6.902;2023-02-28T13:10:08;4.50;;;1.73;;
23046;SDS011;11691;51.462;6.902;2023-02-28T13:12:35;3.33;;;2.17;;
23046;SDS011;11691;51.462;6.902;2023-02-28T13:15:16;2.70;;;1.83;;
23046;SDS011;11691;51.462;6.902;2023-02-28T13:17:48;3.40;;;1.90;;
23046;SDS011;11691;51.462;6.902;2023-02-28T13:20:20;4.00;;;2.20;;
23046;SDS011;11691;51.462;6.902;2023-02-28T13:22:49;4.43;;;1.93;;
23046;SDS011;11691;51.462;6.902;2023-02-28T13:27:50;3.03;;;2.00;;
23046;SDS011;11691;51.462;6.902;2023-02-28T13:35:50;4.63;;;2.30;;
23046;SDS011;11691;51.462;6.902;2023-02-28T13:38:32;4.27;;;2.27;;
23046;SDS011;11691;51.462;6.902;2023-02-28T13:46:28;2.30;;;2.10;;
23046;SDS011;11691;51.462;6.902;2023-02-28T13:48:54;4.27;;;2.10;;
23046;SDS011;11691;51.462;6.902;2023-02-28T13:51:40;3.30;;;1.90;;
23046;SDS011;11691;51.462;6.902;2023-02-28T13:54:13;3.43;;;2.07;;
23046;SDS011;11691;51.462;6.902;2023-02-28T13:57:29;3.43;;;2.20;;
23046;SDS011;11691;51.462;6.902;2023-02-28T13:59:38;2.57;;;2.17;;
23046;SDS011;11691;51.462;6.902;2023-02-28T14:04:58;4.90;;;2.20;;
23046;SDS011;11691;51.462;6.902;2023-02-28T14:07:27;3.90;;;2.30;;
23046;SDS011;11691;51.462;6.902;2023-02-28T14:10:00;5.43;;;2.10;;
23046;SDS011;11691;51.462;6.902;2023-02-28T14:15:30;2.63;;;2.17;;
23046;SDS011;11691;51.462;6.902;2023-02-28T14:21:01;3.40;;;2.03;;
23046;SDS011;11691;51.462;6.902;2023-02-28T14:26:56;3.67;;;2.03;;
23046;SDS011;11691;51.462;6.902;2023-02-28T14:29:36;4.70;;;2.30;;
23046;SDS011;11691;51.462;6.902;2023-02-28T14:34:52;3.63;;;2.47;;
23046;SDS011;11691;51.462;6.902;2023-02-28T14:37:29;3.27;;;2.53;;
23046;SDS011;11691;51.462;6.902;2023-02-28T14:39:58;3.60;;;2.23;;
23046;SDS011;11691;51.462;6.902;2023-02-28T14:42:30;3.70;;;2.30;;
23046;SDS011;11691;51.462;6.902;2023-02-28T14:45:01;2.63;;;2.23;;
23046;SDS011;11691;51.462;6.902;2023-02-28T14:47:28;3.47;;;2.43;;
23046;SDS011;11691;51.462;6.902;2023-02-28T14:49:56;4.13;;;2.30;;
23046;SDS011;11691;51.462;6.902;2023-02-28T14:52:23;2.87;;;2.10;;
23046;SDS011;11691;51.462;6.902;2023-02-28T14:55:00;3.13;;;2.20;;
23046;SDS011;11691;51.462;6.902;2023-02-28T14:57:33;5.00;;;2.17;;
23046;SDS011;11691;51.462;6.902;2023-02-28T15:02:37;5.33;;;2.50;;
23046;SDS011;11691;51.462;6.902;2023-02-28T15:07:38;3.40;;;2.50;;
23046;SDS011;11691;51.462;6.902;2023-02-28T15:12:36;5.20;;;2.70;;
23046;SDS011;11691;51.462;6.902;2023-02-28T15:15:02;3.00;;;2.60;;
23046;SDS011;11691;51.462;6.902;2023-02-28T15:17:29;3.43;;;2.70;;
23046;SDS011;11691;51.462;6.902;2023-02-28T15:19:55;4.57;;;2.37;;
23046;SDS011;11691;51.462;6.902;2023-02-28T15:22:29;2.97;;;2.40;;
23046;SDS011;11691;51.462;6.902;2023-02-28T15:25:00;5.47;;;2.40;;
23046;SDS011;11691;51.462;6.902;2023-02-28T15:27:31;5.93;;;2.67;;
23046;SDS011;11691;51.462;6.902;2023-02-28T15:30:08;5.07;;;2.90;;
23046;SDS011;11691;51.462;6.902;2023-02-28T15:32:38;2.87;;;2.50;;
23046;SDS011;11691;51.462;6.902;2023-02-28T15:38:21;4.87;;;2.57;;
23046;SDS011;11691;51.462;6.902;2023-02-28T15:40:53;6.37;;;2.70;;
23046;SDS011;11691;51.462;6.902;2023-02-28T15:43:25;4.60;;;2.67;;
23046;SDS011;11691;51.462;6.902;2023-02-28T15:45:54;7.43;;;2.57;;
23046;SDS011;11691;51.462;6.902;2023-02-28T15:48:22;6.47;;;2.53;;
23046;SDS011;11691;51.462;6.902;2023-02-28T15:50:52;3.70;;;2.60;;
23046;SDS011;11691;51.462;6.902;2023-02-28T15:53:20;2.80;;;2.27;;
23046;SDS011;11691;51.462;6.902;2023-02-28T15:58:55;4.33;;;3.07;;
23046;SDS011;11691;51.462;6.902;2023-02-28T16:01:24;3.43;;;2.40;;
23046;SDS011;11691;51.462;6.902;2023-02-28T16:03:52;2.80;;;2.50;;
23046;SDS011;11691;51.462;6.902;2023-02-28T16:06:24;4.87;;;2.43;;
23046;SDS011;11691;51.462;6.902;2023-02-28T16:08:51;4.17;;;2.43;;
23046;SDS011;11691;51.462;6.902;2023-02-28T16:11:18;5.00;;;2.50;;
23046;SDS011;11691;51.462;6.902;2023-02-28T16:13:45;5.90;;;2.87;;
23046;SDS011;11691;51.462;6.902;2023-02-28T16:16:19;11.93;;;3.80;;
23046;SDS011;11691;51.462;6.902;2023-02-28T16:18:45;7.17;;;2.90;;
23046;SDS011;11691;51.462;6.902;2023-02-28T16:21:11;4.67;;;2.60;;
23046;SDS011;11691;51.462;6.902;2023-02-28T16:23:37;4.97;;;2.80;;
23046;SDS011;11691;51.462;6.902;2023-02-28T16:26:04;4.00;;;2.57;;
23046;SDS011;11691;51.462;6.902;2023-02-28T16:28:31;5.47;;;2.57;;
23046;SDS011;11691;51.462;6.902;2023-02-28T16:31:00;4.30;;;2.50;;
23046;SDS011;11691;51.462;6.902;2023-02-28T16:33:27;4.50;;;2.43;;
23046;SDS011;11691;51.462;6.902;2023-02-28T16:35:53;3.40;;;2.70;;
23046;SDS011;11691;51.462;6.902;2023-02-28T16:38:19;4.03;;;2.50;;
23046;SDS011;11691;51.462;6.902;2023-02-28T16:40:46;4.97;;;2.43;;
23046;SDS011;11691;51.462;6.902;2023-02-28T16:43:23;5.00;;;2.90;;
23046;SDS011;11691;51.462;6.902;2023-02-28T16:45:56;3.93;;;2.70;;
23046;SDS011;11691;51.462;6.902;2023-02-28T16:48:26;6.67;;;2.90;;
23046;SDS011;11691;51.462;6.902;2023-02-28T16:50:52;10.03;;;2.70;;
23046;SDS011;11691;51.462;6.902;2023-02-28T16:53:18;5.07;;;2.83;;
23046;SDS011;11691;51.462;6.902;2023-02-28T16:55:44;3.93;;;2.60;;
23046;SDS011;11691;51.462;6.902;2023-02-28T16:58:14;4.77;;;2.60;;
23046;SDS011;11691;51.462;6.902;2023-02-28T17:00:41;5.57;;;2.67;;
23046;SDS011;11691;51.462;6.902;2023-02-28T17:03:10;4.83;;;3.03;;
23046;SDS011;11691;51.462;6.902;2023-02-28T17:05:47;7.47;;;2.40;;
23046;SDS011;11691;51.462;6.902;2023-02-28T17:08:13;4.77;;;2.67;;